Gure Amuitz — EASO — position and weather

sailwx.info

Track history (hours):
 
Tides and Currents Weather Stations Pressure Air Temp Water Temp Dewpoint Dewpoint Depression Visibility Wind Speed Wind Dir Waves Ship Positions

Gure Amuitz

Last reported at 2015-May-22 11:30 UTC. Time now 2015-May-24 13:24 UTC.
Position N 43°23' W 001°47'.

Length 28 m.

Type: Fishing. MMSI: 224010590.

Date/timePositionNaut miles runAvg speedWind from/ knotsBaromVisibWave heightAir tempDewpointWater temp
2015-May-22 11:30N 43°23' W 001°47'0 0.1
2015-May-22 10:34N 43°23' W 001°47'2 0.1
2015-May-20 13:34N 43°24' W 001°50'2 2.3
2015-May-20 12:33N 43°23' W 001°48'0 0.0
2015-May-20 07:33N 43°23' W 001°48'0 0.0
2015-May-20 06:33N 43°23' W 001°48'0 0.0
2015-May-19 23:25N 43°23' W 001°48'0 0.0
2015-May-19 22:33N 43°23' W 001°48'0 0.0
2015-May-19 21:34N 43°23' W 001°48'0 0.0
2015-May-19 20:33N 43°23' W 001°48'0 0.0
2015-May-19 19:34N 43°23' W 001°48'0 0.0
2015-May-19 18:34N 43°23' W 001°48'0 0.0
2015-May-19 17:33N 43°23' W 001°48'1 1.3
2015-May-19 16:33N 43°24' W 001°48'5 2.4
2015-May-19 14:24N 43°24' W 001°55'5 6.2
2015-May-19 13:33N 43°23' W 001°48'0 0.0
2015-May-19 12:33N 43°23' W 001°48'0 0.0
2015-May-19 10:03N 43°23' W 001°48'0 0.0
2015-May-19 09:33N 43°23' W 001°48'0 0.0
2015-May-19 08:33N 43°23' W 001°48'0 0.1
2015-May-19 07:33N 43°23' W 001°47'6 0.2
2015-May-17 22:33N 43°25' W 001°55'6 5.8
2015-May-17 21:33N 43°23' W 001°47'  
2015-May-15 09:33N 43°23' W 001°47'0 0.0
2015-May-15 08:34N 43°23' W 001°47'0 0.0
2015-May-15 07:33N 43°23' W 001°47'0 0.0
2015-May-14 18:33N 43°23' W 001°47'0 0.1
2015-May-14 17:33N 43°23' W 001°47'0 0.0
2015-May-14 16:33N 43°23' W 001°47'1 1.4
2015-May-14 15:33N 43°24' W 001°49'  
Track history (hours):
 
Tides and Currents Weather Stations Pressure Air Temp Water Temp Dewpoint Dewpoint Depression Visibility Wind Speed Wind Dir Waves Ship Positions

Gure Amuitz

Last reported at 2015-May-22 11:30 UTC. Time now 2015-May-24 13:24 UTC.
Position N 43°23' W 001°47'.

Length 28 m.

Type: Fishing. MMSI: 224010590.

Date/timePositionNaut miles runAvg speedWind from/ knotsBaromVisibWave heightAir tempDewpointWater temp
2015-May-22 11:30N 43°23' W 001°47'0 0.1
2015-May-22 10:34N 43°23' W 001°47'2 0.1
2015-May-20 13:34N 43°24' W 001°50'2 2.3
2015-May-20 12:33N 43°23' W 001°48'0 0.0
2015-May-20 07:33N 43°23' W 001°48'0 0.0
2015-May-20 06:33N 43°23' W 001°48'0 0.0
2015-May-19 23:25N 43°23' W 001°48'0 0.0
2015-May-19 22:33N 43°23' W 001°48'0 0.0
2015-May-19 21:34N 43°23' W 001°48'0 0.0
2015-May-19 20:33N 43°23' W 001°48'0 0.0
2015-May-19 19:34N 43°23' W 001°48'0 0.0
2015-May-19 18:34N 43°23' W 001°48'0 0.0
2015-May-19 17:33N 43°23' W 001°48'1 1.3
2015-May-19 16:33N 43°24' W 001°48'5 2.4
2015-May-19 14:24N 43°24' W 001°55'5 6.2
2015-May-19 13:33N 43°23' W 001°48'0 0.0
2015-May-19 12:33N 43°23' W 001°48'0 0.0
2015-May-19 10:03N 43°23' W 001°48'0 0.0
2015-May-19 09:33N 43°23' W 001°48'0 0.0
2015-May-19 08:33N 43°23' W 001°48'0 0.1
2015-May-19 07:33N 43°23' W 001°47'6 0.2
2015-May-17 22:33N 43°25' W 001°55'6 5.8
2015-May-17 21:33N 43°23' W 001°47'  
2015-May-15 09:33N 43°23' W 001°47'0 0.0
2015-May-15 08:34N 43°23' W 001°47'0 0.0
2015-May-15 07:33N 43°23' W 001°47'0 0.0
2015-May-14 18:33N 43°23' W 001°47'0 0.1
2015-May-14 17:33N 43°23' W 001°47'0 0.0
2015-May-14 16:33N 43°23' W 001°47'1 1.4
2015-May-14 15:33N 43°24' W 001°49'  

Dump ship's entire track history